sensor_id;sensor_type;location;lat;lon;timestamp;temperature;humidity
27534;DHT22;14973;51.460;7.008;2023-03-20T00:00:28;9.70;89.10
27534;DHT22;14973;51.460;7.008;2023-03-20T00:02:54;9.60;92.00
27534;DHT22;14973;51.460;7.008;2023-03-20T00:05:22;9.60;91.80
27534;DHT22;14973;51.460;7.008;2023-03-20T00:07:49;9.60;92.80
27534;DHT22;14973;51.460;7.008;2023-03-20T00:10:18;9.60;97.70
27534;DHT22;14973;51.460;7.008;2023-03-20T00:12:45;9.60;94.20
27534;DHT22;14973;51.460;7.008;2023-03-20T00:15:22;9.60;93.60
27534;DHT22;14973;51.460;7.008;2023-03-20T00:17:48;9.60;91.00
27534;DHT22;14973;51.460;7.008;2023-03-20T00:20:14;9.70;89.40
27534;DHT22;14973;51.460;7.008;2023-03-20T00:22:40;9.60;90.40
27534;DHT22;14973;51.460;7.008;2023-03-20T00:25:08;9.60;93.80
27534;DHT22;14973;51.460;7.008;2023-03-20T00:27:34;9.70;82.80
27534;DHT22;14973;51.460;7.008;2023-03-20T00:29:59;9.70;73.80
27534;DHT22;14973;51.460;7.008;2023-03-20T00:32:25;9.70;73.40
27534;DHT22;14973;51.460;7.008;2023-03-20T00:34:51;9.70;70.30
27534;DHT22;14973;51.460;7.008;2023-03-20T00:37:16;9.60;68.70
27534;DHT22;14973;51.460;7.008;2023-03-20T00:39:42;9.60;74.30
27534;DHT22;14973;51.460;7.008;2023-03-20T00:42:17;9.60;77.80
27534;DHT22;14973;51.460;7.008;2023-03-20T00:44:49;9.50;87.50
27534;DHT22;14973;51.460;7.008;2023-03-20T00:47:22;9.50;93.00
27534;DHT22;14973;51.460;7.008;2023-03-20T00:49:49;9.50;90.50
27534;DHT22;14973;51.460;7.008;2023-03-20T00:52:19;9.50;90.30
27534;DHT22;14973;51.460;7.008;2023-03-20T00:54:46;9.40;92.50
27534;DHT22;14973;51.460;7.008;2023-03-20T01:02:50;9.40;88.60
27534;DHT22;14973;51.460;7.008;2023-03-20T01:05:17;9.50;88.60
27534;DHT22;14973;51.460;7.008;2023-03-20T01:07:43;9.50;87.80
27534;DHT22;14973;51.460;7.008;2023-03-20T01:10:10;9.40;92.70
27534;DHT22;14973;51.460;7.008;2023-03-20T01:12:38;9.40;94.40
27534;DHT22;14973;51.460;7.008;2023-03-20T01:15:15;9.40;95.70
27534;DHT22;14973;51.460;7.008;2023-03-20T01:17:42;9.40;96.60
27534;DHT22;14973;51.460;7.008;2023-03-20T01:20:24;9.50;93.70
27534;DHT22;14973;51.460;7.008;2023-03-20T01:22:50;9.40;93.90
27534;DHT22;14973;51.460;7.008;2023-03-20T01:25:16;9.40;93.30
27534;DHT22;14973;51.460;7.008;2023-03-20T01:27:45;9.50;88.40
27534;DHT22;14973;51.460;7.008;2023-03-20T01:30:23;9.40;85.90
27534;DHT22;14973;51.460;7.008;2023-03-20T01:32:49;9.40;89.70
27534;DHT22;14973;51.460;7.008;2023-03-20T01:35:17;9.30;91.20
27534;DHT22;14973;51.460;7.008;2023-03-20T01:37:44;9.40;90.30
27534;DHT22;14973;51.460;7.008;2023-03-20T01:42:53;9.40;79.10
27534;DHT22;14973;51.460;7.008;2023-03-20T01:45:22;9.30;78.30
27534;DHT22;14973;51.460;7.008;2023-03-20T01:47:49;9.30;76.90
27534;DHT22;14973;51.460;7.008;2023-03-20T01:50:29;9.10;83.90
27534;DHT22;14973;51.460;7.008;2023-03-20T01:53:12;9.10;91.20
27534;DHT22;14973;51.460;7.008;2023-03-20T01:55:40;9.10;91.90
27534;DHT22;14973;51.460;7.008;2023-03-20T01:58:13;9.10;93.20
27534;DHT22;14973;51.460;7.008;2023-03-20T02:00:40;9.20;83.40
27534;DHT22;14973;51.460;7.008;2023-03-20T02:03:07;9.20;84.30
27534;DHT22;14973;51.460;7.008;2023-03-20T02:05:34;9.10;84.60
27534;DHT22;14973;51.460;7.008;2023-03-20T02:08:14;9.10;79.20
27534;DHT22;14973;51.460;7.008;2023-03-20T02:10:42;9.10;65.10
27534;DHT22;14973;51.460;7.008;2023-03-20T02:13:09;9.00;73.40
27534;DHT22;14973;51.460;7.008;2023-03-20T02:15:35;9.00;73.10
27534;DHT22;14973;51.460;7.008;2023-03-20T02:18:17;9.00;66.70
27534;DHT22;14973;51.460;7.008;2023-03-20T02:20:58;8.80;71.20
27534;DHT22;14973;51.460;7.008;2023-03-20T02:29:28;8.70;63.20
27534;DHT22;14973;51.460;7.008;2023-03-20T02:37:48;8.60;61.00
27534;DHT22;14973;51.460;7.008;2023-03-20T02:43:24;8.50;68.50
27534;DHT22;14973;51.460;7.008;2023-03-20T02:45:58;8.60;68.70
27534;DHT22;14973;51.460;7.008;2023-03-20T02:53:51;8.50;68.70
27534;DHT22;14973;51.460;7.008;2023-03-20T02:56:30;8.50;75.30
27534;DHT22;14973;51.460;7.008;2023-03-20T02:59:07;8.60;68.50
27534;DHT22;14973;51.460;7.008;2023-03-20T03:01:45;8.60;63.50
27534;DHT22;14973;51.460;7.008;2023-03-20T03:04:17;8.60;58.00
27534;DHT22;14973;51.460;7.008;2023-03-20T03:06:46;8.60;61.70
27534;DHT22;14973;51.460;7.008;2023-03-20T03:09:20;8.70;54.50
27534;DHT22;14973;51.460;7.008;2023-03-20T03:11:51;8.70;50.10
27534;DHT22;14973;51.460;7.008;2023-03-20T03:16:53;8.70;38.50
27534;DHT22;14973;51.460;7.008;2023-03-20T03:19:23;8.70;38.90
27534;DHT22;14973;51.460;7.008;2023-03-20T03:21:50;8.70;38.20
27534;DHT22;14973;51.460;7.008;2023-03-20T03:24:30;8.80;35.40
27534;DHT22;14973;51.460;7.008;2023-03-20T03:26:58;8.80;30.20
27534;DHT22;14973;51.460;7.008;2023-03-20T03:29:37;8.80;27.00
27534;DHT22;14973;51.460;7.008;2023-03-20T03:32:05;8.70;34.30
27534;DHT22;14973;51.460;7.008;2023-03-20T03:34:32;8.70;42.50
27534;DHT22;14973;51.460;7.008;2023-03-20T03:40:01;8.60;52.80
27534;DHT22;14973;51.460;7.008;2023-03-20T03:42:47;8.60;52.10
27534;DHT22;14973;51.460;7.008;2023-03-20T03:45:31;8.50;52.50
27534;DHT22;14973;51.460;7.008;2023-03-20T03:48:10;8.50;58.10
27534;DHT22;14973;51.460;7.008;2023-03-20T03:50:43;8.50;62.00
27534;DHT22;14973;51.460;7.008;2023-03-20T03:53:15;8.50;70.60
27534;DHT22;14973;51.460;7.008;2023-03-20T03:55:45;8.50;74.80
27534;DHT22;14973;51.460;7.008;2023-03-20T04:01:08;8.60;80.60
27534;DHT22;14973;51.460;7.008;2023-03-20T04:03:41;8.70;81.20
27534;DHT22;14973;51.460;7.008;2023-03-20T04:06:10;8.80;78.70
27534;DHT22;14973;51.460;7.008;2023-03-20T04:08:39;8.70;72.70
27534;DHT22;14973;51.460;7.008;2023-03-20T04:11:06;8.70;79.80
27534;DHT22;14973;51.460;7.008;2023-03-20T04:13:31;8.70;86.90
27534;DHT22;14973;51.460;7.008;2023-03-20T04:15:57;8.70;92.40
27534;DHT22;14973;51.460;7.008;2023-03-20T04:18:23;8.70;92.80
27534;DHT22;14973;51.460;7.008;2023-03-20T04:20:48;8.80;92.20
27534;DHT22;14973;51.460;7.008;2023-03-20T04:23:14;8.80;93.70
27534;DHT22;14973;51.460;7.008;2023-03-20T04:25:40;8.80;93.50
27534;DHT22;14973;51.460;7.008;2023-03-20T04:28:06;8.70;95.10
27534;DHT22;14973;51.460;7.008;2023-03-20T04:30:31;8.70;94.50
27534;DHT22;14973;51.460;7.008;2023-03-20T04:32:57;8.70;92.30
27534;DHT22;14973;51.460;7.008;2023-03-20T04:35:23;8.60;94.60
27534;DHT22;14973;51.460;7.008;2023-03-20T04:37:48;8.50;96.60
27534;DHT22;14973;51.460;7.008;2023-03-20T04:40:14;8.40;96.70
27534;DHT22;14973;51.460;7.008;2023-03-20T04:42:40;8.40;99.90
27534;DHT22;14973;51.460;7.008;2023-03-20T04:45:06;8.30;99.90
27534;DHT22;14973;51.460;7.008;2023-03-20T04:47:32;8.40;99.90
27534;DHT22;14973;51.460;7.008;2023-03-20T04:49:57;8.40;99.90
27534;DHT22;14973;51.460;7.008;2023-03-20T04:52:23;8.50;99.90
27534;DHT22;14973;51.460;7.008;2023-03-20T04:54:49;8.40;99.90
27534;DHT22;14973;51.460;7.008;2023-03-20T04:57:14;8.40;99.90
27534;DHT22;14973;51.460;7.008;2023-03-20T04:59:41;8.50;99.50
27534;DHT22;14973;51.460;7.008;2023-03-20T05:02:08;8.40;99.60
27534;DHT22;14973;51.460;7.008;2023-03-20T05:04:33;8.40;99.90
27534;DHT22;14973;51.460;7.008;2023-03-20T05:06:59;8.40;99.90
27534;DHT22;14973;51.460;7.008;2023-03-20T05:09:25;8.40;99.90
27534;DHT22;14973;51.460;7.008;2023-03-20T05:11:50;8.30;99.90
27534;DHT22;14973;51.460;7.008;2023-03-20T05:14:16;8.20;99.90
27534;DHT22;14973;51.460;7.008;2023-03-20T05:16:41;8.20;99.90
27534;DHT22;14973;51.460;7.008;2023-03-20T05:19:07;8.10;99.90
27534;DHT22;14973;51.460;7.008;2023-03-20T05:21:33;8.10;99.90
27534;DHT22;14973;51.460;7.008;2023-03-20T05:23:58;8.10;99.90
27534;DHT22;14973;51.460;7.008;2023-03-20T05:26:24;8.10;99.90
27534;DHT22;14973;51.460;7.008;2023-03-20T05:28:49;7.90;99.90
27534;DHT22;14973;51.460;7.008;2023-03-20T05:31:15;7.90;99.90
27534;DHT22;14973;51.460;7.008;2023-03-20T05:33:42;7.80;99.90
27534;DHT22;14973;51.460;7.008;2023-03-20T05:36:08;7.80;99.90
27534;DHT22;14973;51.460;7.008;2023-03-20T05:38:34;7.80;99.90
27534;DHT22;14973;51.460;7.008;2023-03-20T05:41:00;7.80;99.90
27534;DHT22;14973;51.460;7.008;2023-03-20T05:43:26;7.70;99.90
27534;DHT22;14973;51.460;7.008;2023-03-20T05:45:54;7.80;99.90
27534;DHT22;14973;51.460;7.008;2023-03-20T05:48:20;7.80;99.90
27534;DHT22;14973;51.460;7.008;2023-03-20T05:50:46;7.80;99.90
27534;DHT22;14973;51.460;7.008;2023-03-20T05:53:11;7.70;99.90
27534;DHT22;14973;51.460;7.008;2023-03-20T05:55:37;7.70;99.90
27534;DHT22;14973;51.460;7.008;2023-03-20T05:58:04;7.70;99.90
27534;DHT22;14973;51.460;7.008;2023-03-20T06:00:30;7.70;99.90
27534;DHT22;14973;51.460;7.008;2023-03-20T06:02:56;7.80;99.90
27534;DHT22;14973;51.460;7.008;2023-03-20T06:05:21;7.70;99.90
27534;DHT22;14973;51.460;7.008;2023-03-20T06:07:47;7.80;99.90
27534;DHT22;14973;51.460;7.008;2023-03-20T06:10:12;7.80;99.90
27534;DHT22;14973;51.460;7.008;2023-03-20T06:12:38;7.90;99.60
27534;DHT22;14973;51.460;7.008;2023-03-20T06:15:05;7.90;97.60
27534;DHT22;14973;51.460;7.008;2023-03-20T06:17:31;7.90;96.40
27534;DHT22;14973;51.460;7.008;2023-03-20T06:19:56;8.00;94.00
27534;DHT22;14973;51.460;7.008;2023-03-20T06:22:22;8.00;92.60
27534;DHT22;14973;51.460;7.008;2023-03-20T06:24:47;7.90;93.20
27534;DHT22;14973;51.460;7.008;2023-03-20T06:27:13;7.90;93.50
27534;DHT22;14973;51.460;7.008;2023-03-20T06:29:39;8.00;92.90
27534;DHT22;14973;51.460;7.008;2023-03-20T06:32:07;7.90;90.70
27534;DHT22;14973;51.460;7.008;2023-03-20T06:34:35;8.00;91.00
27534;DHT22;14973;51.460;7.008;2023-03-20T06:37:00;8.00;90.20
27534;DHT22;14973;51.460;7.008;2023-03-20T06:39:26;7.90;90.60
27534;DHT22;14973;51.460;7.008;2023-03-20T06:41:53;8.00;92.10
27534;DHT22;14973;51.460;7.008;2023-03-20T06:44:18;8.00;87.90
27534;DHT22;14973;51.460;7.008;2023-03-20T06:46:44;8.00;85.30
27534;DHT22;14973;51.460;7.008;2023-03-20T06:49:10;8.00;80.80
27534;DHT22;14973;51.460;7.008;2023-03-20T06:51:35;8.10;78.70
27534;DHT22;14973;51.460;7.008;2023-03-20T06:54:01;8.10;70.60
27534;DHT22;14973;51.460;7.008;2023-03-20T06:56:27;8.20;64.70
27534;DHT22;14973;51.460;7.008;2023-03-20T06:58:52;8.30;60.70
27534;DHT22;14973;51.460;7.008;2023-03-20T07:01:18;8.40;53.80
27534;DHT22;14973;51.460;7.008;2023-03-20T07:03:45;8.30;45.40
27534;DHT22;14973;51.460;7.008;2023-03-20T07:06:11;8.40;40.50
27534;DHT22;14973;51.460;7.008;2023-03-20T07:08:38;8.50;37.10
27534;DHT22;14973;51.460;7.008;2023-03-20T07:11:05;8.60;29.50
27534;DHT22;14973;51.460;7.008;2023-03-20T07:13:31;8.80;19.20
27534;DHT22;14973;51.460;7.008;2023-03-20T07:15:59;8.80;7.90
27534;DHT22;14973;51.460;7.008;2023-03-20T07:18:25;8.90;1.00
27534;DHT22;14973;51.460;7.008;2023-03-20T07:20:52;8.80;1.00
27534;DHT22;14973;51.460;7.008;2023-03-20T07:23:18;8.80;7.90
27534;DHT22;14973;51.460;7.008;2023-03-20T07:25:43;8.70;4.00
27534;DHT22;14973;51.460;7.008;2023-03-20T07:28:10;8.90;1.00
27534;DHT22;14973;51.460;7.008;2023-03-20T07:30:36;8.80;1.00
27534;DHT22;14973;51.460;7.008;2023-03-20T07:33:01;9.10;1.00
27534;DHT22;14973;51.460;7.008;2023-03-20T07:35:27;9.20;1.00
27534;DHT22;14973;51.460;7.008;2023-03-20T07:37:53;9.20;1.00
27534;DHT22;14973;51.460;7.008;2023-03-20T07:40:18;9.20;1.00
27534;DHT22;14973;51.460;7.008;2023-03-20T07:42:44;9.40;1.00
27534;DHT22;14973;51.460;7.008;2023-03-20T07:45:12;9.50;1.00
27534;DHT22;14973;51.460;7.008;2023-03-20T07:47:38;9.60;1.00
27534;DHT22;14973;51.460;7.008;2023-03-20T07:50:05;9.70;1.00
27534;DHT22;14973;51.460;7.008;2023-03-20T07:52:31;9.80;1.00
27534;DHT22;14973;51.460;7.008;2023-03-20T07:54:56;10.00;1.00
27534;DHT22;14973;51.460;7.008;2023-03-20T07:57:22;10.10;99.90
27534;DHT22;14973;51.460;7.008;2023-03-20T07:59:47;10.20;99.90
27534;DHT22;14973;51.460;7.008;2023-03-20T08:02:16;10.30;99.90
27534;DHT22;14973;51.460;7.008;2023-03-20T08:04:43;10.30;29.90
27534;DHT22;14973;51.460;7.008;2023-03-20T08:07:09;10.50;1.00
27534;DHT22;14973;51.460;7.008;2023-03-20T08:09:35;10.80;1.00
27534;DHT22;14973;51.460;7.008;2023-03-20T08:12:02;11.00;99.90
27534;DHT22;14973;51.460;7.008;2023-03-20T08:14:27;11.50;99.90
27534;DHT22;14973;51.460;7.008;2023-03-20T08:16:53;11.90;1.00
27534;DHT22;14973;51.460;7.008;2023-03-20T08:19:19;12.20;1.00
27534;DHT22;14973;51.460;7.008;2023-03-20T08:21:45;12.20;99.90
27534;DHT22;14973;51.460;7.008;2023-03-20T08:24:11;12.10;99.90
27534;DHT22;14973;51.460;7.008;2023-03-20T08:26:37;11.70;99.90
27534;DHT22;14973;51.460;7.008;2023-03-20T08:29:03;11.70;1.00
27534;DHT22;14973;51.460;7.008;2023-03-20T08:31:28;11.60;1.00
27534;DHT22;14973;51.460;7.008;2023-03-20T08:33:54;11.50;1.00
27534;DHT22;14973;51.460;7.008;2023-03-20T08:36:21;11.50;1.00
27534;DHT22;14973;51.460;7.008;2023-03-20T08:38:48;11.40;1.00
27534;DHT22;14973;51.460;7.008;2023-03-20T08:41:15;11.50;1.00
27534;DHT22;14973;51.460;7.008;2023-03-20T08:43:41;11.80;99.90
27534;DHT22;14973;51.460;7.008;2023-03-20T08:46:07;11.90;99.90
27534;DHT22;14973;51.460;7.008;2023-03-20T08:48:33;12.00;94.00
27534;DHT22;14973;51.460;7.008;2023-03-20T08:50:59;12.10;1.00
27534;DHT22;14973;51.460;7.008;2023-03-20T08:53:25;12.00;1.00
27534;DHT22;14973;51.460;7.008;2023-03-20T08:55:52;11.90;1.00
27534;DHT22;14973;51.460;7.008;2023-03-20T08:58:19;11.90;1.00
27534;DHT22;14973;51.460;7.008;2023-03-20T09:00:45;11.80;1.00
27534;DHT22;14973;51.460;7.008;2023-03-20T09:03:13;11.90;1.00
27534;DHT22;14973;51.460;7.008;2023-03-20T09:05:40;11.90;1.00
27534;DHT22;14973;51.460;7.008;2023-03-20T09:08:06;11.70;1.00
27534;DHT22;14973;51.460;7.008;2023-03-20T09:10:32;11.70;99.90
27534;DHT22;14973;51.460;7.008;2023-03-20T09:12:59;11.50;99.90
27534;DHT22;14973;51.460;7.008;2023-03-20T09:15:26;11.60;99.90
27534;DHT22;14973;51.460;7.008;2023-03-20T09:17:52;11.50;99.90
27534;DHT22;14973;51.460;7.008;2023-03-20T09:20:18;11.30;99.90
27534;DHT22;14973;51.460;7.008;2023-03-20T09:22:44;11.20;99.90
27534;DHT22;14973;51.460;7.008;2023-03-20T09:25:11;11.20;1.00
27534;DHT22;14973;51.460;7.008;2023-03-20T09:27:37;11.10;1.00
27534;DHT22;14973;51.460;7.008;2023-03-20T09:30:04;11.10;99.90
27534;DHT22;14973;51.460;7.008;2023-03-20T09:32:32;11.00;99.90
27534;DHT22;14973;51.460;7.008;2023-03-20T09:34:59;10.90;99.90
27534;DHT22;14973;51.460;7.008;2023-03-20T09:37:25;10.90;99.90
27534;DHT22;14973;51.460;7.008;2023-03-20T09:39:51;10.80;99.90
27534;DHT22;14973;51.460;7.008;2023-03-20T09:42:34;10.80;99.90
27534;DHT22;14973;51.460;7.008;2023-03-20T09:45:13;10.90;99.90
27534;DHT22;14973;51.460;7.008;2023-03-20T09:53:30;11.10;99.90
27534;DHT22;14973;51.460;7.008;2023-03-20T09:55:58;11.20;99.90
27534;DHT22;14973;51.460;7.008;2023-03-20T09:58:27;11.20;28.90
27534;DHT22;14973;51.460;7.008;2023-03-20T10:00:57;11.20;1.00
27534;DHT22;14973;51.460;7.008;2023-03-20T10:04:12;11.10;1.00
27534;DHT22;14973;51.460;7.008;2023-03-20T10:06:15;11.10;1.00
27534;DHT22;14973;51.460;7.008;2023-03-20T10:08:42;11.10;1.00
27534;DHT22;14973;51.460;7.008;2023-03-20T10:17:15;11.20;1.00
27534;DHT22;14973;51.460;7.008;2023-03-20T10:22:36;11.30;99.90
27534;DHT22;14973;51.460;7.008;2023-03-20T10:25:25;11.30;99.90
27534;DHT22;14973;51.460;7.008;2023-03-20T10:28:00;11.30;99.90
27534;DHT22;14973;51.460;7.008;2023-03-20T10:33:24;11.50;99.90
27534;DHT22;14973;51.460;7.008;2023-03-20T10:36:08;11.70;99.90
27534;DHT22;14973;51.460;7.008;2023-03-20T10:39:02;11.70;99.90
27534;DHT22;14973;51.460;7.008;2023-03-20T10:41:34;11.70;99.90
27534;DHT22;14973;51.460;7.008;2023-03-20T10:44:01;11.80;99.90
27534;DHT22;14973;51.460;7.008;2023-03-20T10:46:42;11.80;99.90
27534;DHT22;14973;51.460;7.008;2023-03-20T10:49:35;11.90;99.90
27534;DHT22;14973;51.460;7.008;2023-03-20T10:52:38;11.90;99.90
27534;DHT22;14973;51.460;7.008;2023-03-20T10:55:00;12.10;99.90
27534;DHT22;14973;51.460;7.008;2023-03-20T10:57:31;12.50;99.90
27534;DHT22;14973;51.460;7.008;2023-03-20T10:59:58;12.50;99.90
27534;DHT22;14973;51.460;7.008;2023-03-20T11:02:28;12.40;99.90
27534;DHT22;14973;51.460;7.008;2023-03-20T11:04:54;12.30;99.90
27534;DHT22;14973;51.460;7.008;2023-03-20T11:07:26;12.30;99.90
27534;DHT22;14973;51.460;7.008;2023-03-20T11:12:42;12.00;99.90
27534;DHT22;14973;51.460;7.008;2023-03-20T11:15:24;12.00;99.90
27534;DHT22;14973;51.460;7.008;2023-03-20T11:18:01;12.10;99.90
27534;DHT22;14973;51.460;7.008;2023-03-20T11:20:57;12.30;99.90
27534;DHT22;14973;51.460;7.008;2023-03-20T11:23:32;12.60;99.90
27534;DHT22;14973;51.460;7.008;2023-03-20T11:26:05;12.60;99.90
27534;DHT22;14973;51.460;7.008;2023-03-20T11:28:39;12.50;99.90
27534;DHT22;14973;51.460;7.008;2023-03-20T11:31:24;12.40;99.90
27534;DHT22;14973;51.460;7.008;2023-03-20T11:36:58;12.20;99.90
27534;DHT22;14973;51.460;7.008;2023-03-20T11:39:27;12.20;99.90
27534;DHT22;14973;51.460;7.008;2023-03-20T11:41:55;12.10;99.90
27534;DHT22;14973;51.460;7.008;2023-03-20T11:44:30;12.10;99.90
27534;DHT22;14973;51.460;7.008;2023-03-20T11:47:00;12.20;99.90
27534;DHT22;14973;51.460;7.008;2023-03-20T11:49:44;12.20;99.90
27534;DHT22;14973;51.460;7.008;2023-03-20T11:52:14;12.30;99.90
27534;DHT22;14973;51.460;7.008;2023-03-20T11:54:47;12.50;99.90
27534;DHT22;14973;51.460;7.008;2023-03-20T11:57:37;12.50;99.90
27534;DHT22;14973;51.460;7.008;2023-03-20T12:02:39;12.00;99.90
27534;DHT22;14973;51.460;7.008;2023-03-20T12:05:37;12.20;99.90
27534;DHT22;14973;51.460;7.008;2023-03-20T12:08:16;12.10;99.90
27534;DHT22;14973;51.460;7.008;2023-03-20T12:10:50;12.10;99.90
27534;DHT22;14973;51.460;7.008;2023-03-20T12:13:24;11.90;99.90
27534;DHT22;14973;51.460;7.008;2023-03-20T12:15:56;11.90;99.90
27534;DHT22;14973;51.460;7.008;2023-03-20T12:18:37;11.90;99.90
27534;DHT22;14973;51.460;7.008;2023-03-20T12:21:18;12.00;99.90
27534;DHT22;14973;51.460;7.008;2023-03-20T12:23:55;12.10;99.90
27534;DHT22;14973;51.460;7.008;2023-03-20T12:26:50;12.20;99.90
27534;DHT22;14973;51.460;7.008;2023-03-20T12:34:30;11.50;99.90
27534;DHT22;14973;51.460;7.008;2023-03-20T12:36:57;11.40;99.90
27534;DHT22;14973;51.460;7.008;2023-03-20T12:39:34;11.40;99.90
27534;DHT22;14973;51.460;7.008;2023-03-20T12:45:03;11.40;99.90
27534;DHT22;14973;51.460;7.008;2023-03-20T12:58:38;11.80;99.90
27534;DHT22;14973;51.460;7.008;2023-03-20T13:01:32;11.80;1.00
27534;DHT22;14973;51.460;7.008;2023-03-20T13:07:06;11.80;1.00
27534;DHT22;14973;51.460;7.008;2023-03-20T13:09:59;11.70;1.00
27534;DHT22;14973;51.460;7.008;2023-03-20T13:13:15;11.60;1.00
27534;DHT22;14973;51.460;7.008;2023-03-20T13:16:04;11.40;1.00
27534;DHT22;14973;51.460;7.008;2023-03-20T13:21:09;11.00;1.00
27534;DHT22;14973;51.460;7.008;2023-03-20T13:23:45;10.90;96.40
27534;DHT22;14973;51.460;7.008;2023-03-20T13:26:25;10.90;99.90
27534;DHT22;14973;51.460;7.008;2023-03-20T13:34:04;11.30;99.90
27534;DHT22;14973;51.460;7.008;2023-03-20T13:42:29;11.00;99.90
27534;DHT22;14973;51.460;7.008;2023-03-20T13:45:03;10.90;99.90
27534;DHT22;14973;51.460;7.008;2023-03-20T13:47:32;10.90;99.90
27534;DHT22;14973;51.460;7.008;2023-03-20T13:50:38;10.80;99.90
27534;DHT22;14973;51.460;7.008;2023-03-20T13:58:48;10.70;1.00
27534;DHT22;14973;51.460;7.008;2023-03-20T14:04:17;10.70;1.00
27534;DHT22;14973;51.460;7.008;2023-03-20T14:06:55;10.70;1.00
27534;DHT22;14973;51.460;7.008;2023-03-20T14:09:33;10.90;1.00
27534;DHT22;14973;51.460;7.008;2023-03-20T14:12:08;11.00;99.90
27534;DHT22;14973;51.460;7.008;2023-03-20T14:14:46;11.20;99.90
27534;DHT22;14973;51.460;7.008;2023-03-20T14:19:49;11.30;99.90
27534;DHT22;14973;51.460;7.008;2023-03-20T14:22:32;11.40;99.90
27534;DHT22;14973;51.460;7.008;2023-03-20T14:25:08;11.20;99.90
27534;DHT22;14973;51.460;7.008;2023-03-20T14:28:00;11.10;99.90
27534;DHT22;14973;51.460;7.008;2023-03-20T14:35:47;11.40;99.90
27534;DHT22;14973;51.460;7.008;2023-03-20T14:41:10;11.40;99.90
27534;DHT22;14973;51.460;7.008;2023-03-20T14:57:49;11.60;99.90
27534;DHT22;14973;51.460;7.008;2023-03-20T15:00:21;11.60;99.90
27534;DHT22;14973;51.460;7.008;2023-03-20T15:02:51;11.50;99.90
27534;DHT22;14973;51.460;7.008;2023-03-20T15:05:30;11.50;99.90
27534;DHT22;14973;51.460;7.008;2023-03-20T15:08:04;11.50;90.90
27534;DHT22;14973;51.460;7.008;2023-03-20T15:10:33;11.60;99.90
27534;DHT22;14973;51.460;7.008;2023-03-20T15:12:59;11.70;99.90
27534;DHT22;14973;51.460;7.008;2023-03-20T15:15:28;11.50;99.90
27534;DHT22;14973;51.460;7.008;2023-03-20T15:18:03;11.50;99.90
27534;DHT22;14973;51.460;7.008;2023-03-20T15:20:29;11.50;99.90
27534;DHT22;14973;51.460;7.008;2023-03-20T15:23:00;11.40;99.90
27534;DHT22;14973;51.460;7.008;2023-03-20T15:25:46;11.40;99.90
27534;DHT22;14973;51.460;7.008;2023-03-20T15:28:21;11.50;99.90
27534;DHT22;14973;51.460;7.008;2023-03-20T15:30:49;11.50;99.90
27534;DHT22;14973;51.460;7.008;2023-03-20T15:33:25;11.50;99.90
27534;DHT22;14973;51.460;7.008;2023-03-20T15:35:52;11.50;1.00
27534;DHT22;14973;51.460;7.008;2023-03-20T15:38:18;11.40;1.00
27534;DHT22;14973;51.460;7.008;2023-03-20T15:40:45;11.30;99.90
27534;DHT22;14973;51.460;7.008;2023-03-20T15:43:22;11.20;99.90
27534;DHT22;14973;51.460;7.008;2023-03-20T15:45:50;11.10;17.20
27534;DHT22;14973;51.460;7.008;2023-03-20T15:48:21;10.90;99.90
27534;DHT22;14973;51.460;7.008;2023-03-20T15:50:56;11.00;1.00
27534;DHT22;14973;51.460;7.008;2023-03-20T15:53:29;11.00;99.90
27534;DHT22;14973;51.460;7.008;2023-03-20T15:58:28;10.90;1.00
27534;DHT22;14973;51.460;7.008;2023-03-20T16:00:58;10.90;99.90
27534;DHT22;14973;51.460;7.008;2023-03-20T16:03:26;10.90;1.00
27534;DHT22;14973;51.460;7.008;2023-03-20T16:05:52;10.80;1.00
27534;DHT22;14973;51.460;7.008;2023-03-20T16:08:24;10.80;1.00
27534;DHT22;14973;51.460;7.008;2023-03-20T16:11:09;10.80;99.90
27534;DHT22;14973;51.460;7.008;2023-03-20T16:13:40;10.80;99.90
27534;DHT22;14973;51.460;7.008;2023-03-20T16:16:11;10.90;99.90
27534;DHT22;14973;51.460;7.008;2023-03-20T16:18:38;10.90;99.90
27534;DHT22;14973;51.460;7.008;2023-03-20T16:21:11;10.80;99.90
27534;DHT22;14973;51.460;7.008;2023-03-20T16:23:43;10.70;99.90
27534;DHT22;14973;51.460;7.008;2023-03-20T16:26:15;10.80;1.00
27534;DHT22;14973;51.460;7.008;2023-03-20T16:28:45;10.70;1.00
27534;DHT22;14973;51.460;7.008;2023-03-20T16:31:26;10.60;1.00
27534;DHT22;14973;51.460;7.008;2023-03-20T16:33:58;10.50;99.90
27534;DHT22;14973;51.460;7.008;2023-03-20T16:36:29;10.50;1.00
27534;DHT22;14973;51.460;7.008;2023-03-20T16:39:06;10.40;1.00
27534;DHT22;14973;51.460;7.008;2023-03-20T16:41:37;10.30;99.90
27534;DHT22;14973;51.460;7.008;2023-03-20T16:44:20;10.30;1.00
27534;DHT22;14973;51.460;7.008;2023-03-20T16:47:01;10.20;1.00
27534;DHT22;14973;51.460;7.008;2023-03-20T16:51:58;10.30;1.00
27534;DHT22;14973;51.460;7.008;2023-03-20T16:54:28;10.30;1.00
27534;DHT22;14973;51.460;7.008;2023-03-20T16:56:55;10.10;1.00
27534;DHT22;14973;51.460;7.008;2023-03-20T16:59:22;10.00;1.00
27534;DHT22;14973;51.460;7.008;2023-03-20T17:01:49;9.90;1.00
27534;DHT22;14973;51.460;7.008;2023-03-20T17:04:22;9.80;5.50
27534;DHT22;14973;51.460;7.008;2023-03-20T17:06:53;9.80;18.80
27534;DHT22;14973;51.460;7.008;2023-03-20T17:09:27;9.80;12.60
27534;DHT22;14973;51.460;7.008;2023-03-20T17:12:02;9.70;18.50
27534;DHT22;14973;51.460;7.008;2023-03-20T17:14:29;9.70;17.80
27534;DHT22;14973;51.460;7.008;2023-03-20T17:16:56;9.70;22.30
27534;DHT22;14973;51.460;7.008;2023-03-20T17:19:22;9.70;12.70
27534;DHT22;14973;51.460;7.008;2023-03-20T17:21:49;9.70;10.90
27534;DHT22;14973;51.460;7.008;2023-03-20T17:24:15;9.70;1.00
27534;DHT22;14973;51.460;7.008;2023-03-20T17:26:44;9.70;1.00
27534;DHT22;14973;51.460;7.008;2023-03-20T17:29:11;9.80;1.00
27534;DHT22;14973;51.460;7.008;2023-03-20T17:31:37;9.80;1.00
27534;DHT22;14973;51.460;7.008;2023-03-20T17:34:03;9.80;1.00
27534;DHT22;14973;51.460;7.008;2023-03-20T17:36:31;9.70;1.00
27534;DHT22;14973;51.460;7.008;2023-03-20T17:38:58;9.70;1.00
27534;DHT22;14973;51.460;7.008;2023-03-20T17:41:25;9.70;1.00
27534;DHT22;14973;51.460;7.008;2023-03-20T17:43:51;9.70;1.00
27534;DHT22;14973;51.460;7.008;2023-03-20T17:46:18;9.70;1.00
27534;DHT22;14973;51.460;7.008;2023-03-20T17:48:47;9.70;1.00
27534;DHT22;14973;51.460;7.008;2023-03-20T17:51:13;9.80;1.00
27534;DHT22;14973;51.460;7.008;2023-03-20T17:53:39;9.70;1.00
27534;DHT22;14973;51.460;7.008;2023-03-20T17:56:15;9.70;1.00
27534;DHT22;14973;51.460;7.008;2023-03-20T17:58:41;9.70;1.00
27534;DHT22;14973;51.460;7.008;2023-03-20T18:01:10;9.80;1.00
27534;DHT22;14973;51.460;7.008;2023-03-20T18:03:36;9.80;1.00
27534;DHT22;14973;51.460;7.008;2023-03-20T18:06:03;9.80;1.00
27534;DHT22;14973;51.460;7.008;2023-03-20T18:08:29;9.80;1.00
27534;DHT22;14973;51.460;7.008;2023-03-20T18:10:54;9.80;1.00
27534;DHT22;14973;51.460;7.008;2023-03-20T18:13:22;9.90;1.00
27534;DHT22;14973;51.460;7.008;2023-03-20T18:15:50;9.90;1.00
27534;DHT22;14973;51.460;7.008;2023-03-20T18:18:16;10.00;1.00